sensor_id;sensor_type;location;lat;lon;timestamp;pressure;altitude;pressure_sealevel;temperature;humidity
54389;BME280;40975;50.390;8.640;2023-04-01T00:01:54;97274.66;;;8.15;100.00
54389;BME280;40975;50.390;8.640;2023-04-01T00:04:19;97264.44;;;8.12;100.00
54389;BME280;40975;50.390;8.640;2023-04-01T00:06:45;97271.53;;;8.12;100.00
54389;BME280;40975;50.390;8.640;2023-04-01T00:09:12;97261.78;;;8.12;100.00
54389;BME280;40975;50.390;8.640;2023-04-01T00:11:38;97257.34;;;8.13;100.00
54389;BME280;40975;50.390;8.640;2023-04-01T00:14:03;97260.31;;;8.09;100.00
54389;BME280;40975;50.390;8.640;2023-04-01T00:16:29;97264.78;;;8.09;100.00
54389;BME280;40975;50.390;8.640;2023-04-01T00:18:55;97265.59;;;8.09;100.00
54389;BME280;40975;50.390;8.640;2023-04-01T00:21:20;97266.59;;;8.08;100.00
54389;BME280;40975;50.390;8.640;2023-04-01T00:23:47;97265.59;;;8.09;100.00
54389;BME280;40975;50.390;8.640;2023-04-01T00:26:13;97263.97;;;8.08;100.00
54389;BME280;40975;50.390;8.640;2023-04-01T00:28:40;97265.13;;;8.06;100.00
54389;BME280;40975;50.390;8.640;2023-04-01T00:31:07;97265.31;;;8.04;100.00
54389;BME280;40975;50.390;8.640;2023-04-01T00:33:33;97268.31;;;8.01;100.00
54389;BME280;40975;50.390;8.640;2023-04-01T00:36:13;97265.03;;;7.99;100.00
54389;BME280;40975;50.390;8.640;2023-04-01T00:38:38;97259.44;;;7.94;100.00
54389;BME280;40975;50.390;8.640;2023-04-01T00:41:05;97269.19;;;7.93;100.00
54389;BME280;40975;50.390;8.640;2023-04-01T00:43:30;97265.06;;;7.91;100.00
54389;BME280;40975;50.390;8.640;2023-04-01T00:45:57;97263.44;;;7.90;100.00
54389;BME280;40975;50.390;8.640;2023-04-01T00:48:25;97267.25;;;7.87;100.00
54389;BME280;40975;50.390;8.640;2023-04-01T00:50:59;97260.78;;;7.90;100.00
54389;BME280;40975;50.390;8.640;2023-04-01T00:53:26;97260.13;;;7.88;100.00
54389;BME280;40975;50.390;8.640;2023-04-01T00:58:40;97257.50;;;7.88;100.00
54389;BME280;40975;50.390;8.640;2023-04-01T01:01:07;97255.38;;;7.83;100.00
54389;BME280;40975;50.390;8.640;2023-04-01T01:03:33;97251.94;;;7.83;100.00
54389;BME280;40975;50.390;8.640;2023-04-01T01:11:45;97246.66;;;7.83;100.00
54389;BME280;40975;50.390;8.640;2023-04-01T01:14:36;97247.44;;;7.83;100.00
54389;BME280;40975;50.390;8.640;2023-04-01T01:25:20;97246.53;;;7.76;100.00
54389;BME280;40975;50.390;8.640;2023-04-01T01:28:01;97252.97;;;7.73;100.00
54389;BME280;40975;50.390;8.640;2023-04-01T01:30:41;97255.63;;;7.73;100.00
54389;BME280;40975;50.390;8.640;2023-04-01T01:33:24;97263.53;;;7.73;100.00
54389;BME280;40975;50.390;8.640;2023-04-01T01:35:55;97246.38;;;7.69;100.00
54389;BME280;40975;50.390;8.640;2023-04-01T01:38:26;97241.44;;;7.66;100.00
54389;BME280;40975;50.390;8.640;2023-04-01T01:41:00;97242.63;;;7.63;100.00
54389;BME280;40975;50.390;8.640;2023-04-01T01:43:40;97244.47;;;7.63;100.00
54389;BME280;40975;50.390;8.640;2023-04-01T01:46:15;97246.06;;;7.64;100.00
54389;BME280;40975;50.390;8.640;2023-04-01T01:48:43;97241.63;;;7.65;100.00
54389;BME280;40975;50.390;8.640;2023-04-01T01:51:10;97245.72;;;7.67;100.00
54389;BME280;40975;50.390;8.640;2023-04-01T01:53:36;97245.09;;;7.65;100.00
54389;BME280;40975;50.390;8.640;2023-04-01T01:56:02;97246.06;;;7.64;100.00
54389;BME280;40975;50.390;8.640;2023-04-01T01:58:36;97255.47;;;7.67;100.00
54389;BME280;40975;50.390;8.640;2023-04-01T02:01:12;97249.88;;;7.61;100.00
54389;BME280;40975;50.390;8.640;2023-04-01T02:03:39;97244.59;;;7.61;100.00
54389;BME280;40975;50.390;8.640;2023-04-01T02:06:10;97257.00;;;7.61;100.00
54389;BME280;40975;50.390;8.640;2023-04-01T02:08:44;97259.16;;;7.57;100.00
54389;BME280;40975;50.390;8.640;2023-04-01T02:11:13;97250.25;;;7.58;100.00
54389;BME280;40975;50.390;8.640;2023-04-01T02:13:48;97253.06;;;7.57;100.00
54389;BME280;40975;50.390;8.640;2023-04-01T02:16:21;97247.94;;;7.55;100.00
54389;BME280;40975;50.390;8.640;2023-04-01T02:18:50;97248.75;;;7.56;100.00
54389;BME280;40975;50.390;8.640;2023-04-01T02:21:20;97247.47;;;7.52;100.00
54389;BME280;40975;50.390;8.640;2023-04-01T02:23:47;97243.19;;;7.51;100.00
54389;BME280;40975;50.390;8.640;2023-04-01T02:26:12;97246.81;;;7.50;100.00
54389;BME280;40975;50.390;8.640;2023-04-01T02:28:39;97253.09;;;7.49;100.00
54389;BME280;40975;50.390;8.640;2023-04-01T02:31:09;97246.00;;;7.49;100.00
54389;BME280;40975;50.390;8.640;2023-04-01T02:33:36;97251.13;;;7.51;100.00
54389;BME280;40975;50.390;8.640;2023-04-01T02:36:03;97243.53;;;7.47;100.00
54389;BME280;40975;50.390;8.640;2023-04-01T02:38:29;97247.16;;;7.46;100.00
54389;BME280;40975;50.390;8.640;2023-04-01T02:40:59;97253.94;;;7.41;100.00
54389;BME280;40975;50.390;8.640;2023-04-01T02:43:26;97246.03;;;7.41;100.00
54389;BME280;40975;50.390;8.640;2023-04-01T02:45:52;97249.84;;;7.38;100.00
54389;BME280;40975;50.390;8.640;2023-04-01T02:48:17;97248.19;;;7.37;100.00
54389;BME280;40975;50.390;8.640;2023-04-01T02:50:42;97244.91;;;7.35;100.00
54389;BME280;40975;50.390;8.640;2023-04-01T02:53:08;97248.53;;;7.34;100.00
54389;BME280;40975;50.390;8.640;2023-04-01T02:55:34;97249.19;;;7.36;100.00
54389;BME280;40975;50.390;8.640;2023-04-01T02:58:00;97244.09;;;7.35;100.00
54389;BME280;40975;50.390;8.640;2023-04-01T03:00:27;97242.78;;;7.30;100.00
54389;BME280;40975;50.390;8.640;2023-04-01T03:02:52;97244.44;;;7.31;100.00
54389;BME280;40975;50.390;8.640;2023-04-01T03:05:19;97248.06;;;7.30;100.00
54389;BME280;40975;50.390;8.640;2023-04-01T03:07:44;97246.59;;;7.28;100.00
54389;BME280;40975;50.390;8.640;2023-04-01T03:10:10;97242.31;;;7.27;100.00
54389;BME280;40975;50.390;8.640;2023-04-01T03:12:36;97247.59;;;7.27;100.00
54389;BME280;40975;50.390;8.640;2023-04-01T03:15:01;97247.91;;;7.24;100.00
54389;BME280;40975;50.390;8.640;2023-04-01T03:17:27;97242.81;;;7.22;100.00
54389;BME280;40975;50.390;8.640;2023-04-01T03:19:52;97246.28;;;7.23;100.00
54389;BME280;40975;50.390;8.640;2023-04-01T03:22:18;97242.34;;;7.19;100.00
54389;BME280;40975;50.390;8.640;2023-04-01T03:24:48;97251.25;;;7.18;100.00
54389;BME280;40975;50.390;8.640;2023-04-01T03:27:14;97245.31;;;7.15;100.00
54389;BME280;40975;50.390;8.640;2023-04-01T03:29:39;97240.22;;;7.14;100.00
54389;BME280;40975;50.390;8.640;2023-04-01T03:32:05;97244.03;;;7.11;100.00
54389;BME280;40975;50.390;8.640;2023-04-01T03:34:31;97238.09;;;7.09;100.00
54389;BME280;40975;50.390;8.640;2023-04-01T03:36:56;97254.91;;;7.08;100.00
54389;BME280;40975;50.390;8.640;2023-04-01T03:39:22;97259.84;;;7.11;100.00
54389;BME280;40975;50.390;8.640;2023-04-01T03:41:49;97245.34;;;7.07;100.00
54389;BME280;40975;50.390;8.640;2023-04-01T03:44:15;97245.69;;;7.12;100.00
54389;BME280;40975;50.390;8.640;2023-04-01T03:46:40;97249.63;;;7.08;100.00
54389;BME280;40975;50.390;8.640;2023-04-01T03:49:07;97245.03;;;7.10;100.00
54389;BME280;40975;50.390;8.640;2023-04-01T03:51:38;97241.72;;;7.08;100.00
54389;BME280;40975;50.390;8.640;2023-04-01T03:54:04;97240.72;;;7.09;100.00
54389;BME280;40975;50.390;8.640;2023-04-01T03:56:30;97242.22;;;7.04;100.00
54389;BME280;40975;50.390;8.640;2023-04-01T03:58:55;97239.41;;;7.05;100.00
54389;BME280;40975;50.390;8.640;2023-04-01T04:01:21;97251.13;;;7.03;100.00
54389;BME280;40975;50.390;8.640;2023-04-01T04:03:50;97246.03;;;7.01;100.00
54389;BME280;40975;50.390;8.640;2023-04-01T04:06:17;97244.22;;;7.02;100.00
54389;BME280;40975;50.390;8.640;2023-04-01T04:08:43;97242.56;;;7.00;100.00
54389;BME280;40975;50.390;8.640;2023-04-01T04:11:09;97242.56;;;7.00;100.00
54389;BME280;40975;50.390;8.640;2023-04-01T04:13:38;97248.03;;;6.99;100.00
54389;BME280;40975;50.390;8.640;2023-04-01T04:16:03;97243.56;;;6.99;100.00
54389;BME280;40975;50.390;8.640;2023-04-01T04:18:29;97236.47;;;7.00;100.00
54389;BME280;40975;50.390;8.640;2023-04-01T04:20:55;97245.06;;;7.02;100.00
54389;BME280;40975;50.390;8.640;2023-04-01T04:23:21;97241.56;;;7.02;100.00
54389;BME280;40975;50.390;8.640;2023-04-01T04:26:01;97250.31;;;7.02;100.00
54389;BME280;40975;50.390;8.640;2023-04-01T04:28:28;97245.06;;;7.02;100.00
54389;BME280;40975;50.390;8.640;2023-04-01T04:30:55;97253.78;;;7.03;100.00
54389;BME280;40975;50.390;8.640;2023-04-01T04:33:22;97245.06;;;7.02;100.00
54389;BME280;40975;50.390;8.640;2023-04-01T04:35:48;97235.31;;;7.03;100.00
54389;BME280;40975;50.390;8.640;2023-04-01T04:38:14;97237.63;;;7.06;100.00
54389;BME280;40975;50.390;8.640;2023-04-01T04:40:41;97244.34;;;7.08;100.00
54389;BME280;40975;50.390;8.640;2023-04-01T04:43:10;97241.06;;;7.06;100.00
54389;BME280;40975;50.390;8.640;2023-04-01T04:45:36;97242.41;;;7.02;100.00
54389;BME280;40975;50.390;8.640;2023-04-01T04:48:02;97249.34;;;7.03;100.00
54389;BME280;40975;50.390;8.640;2023-04-01T04:50:31;97243.22;;;7.03;100.00
54389;BME280;40975;50.390;8.640;2023-04-01T04:52:56;97249.66;;;7.00;100.00
54389;BME280;40975;50.390;8.640;2023-04-01T04:55:22;97251.31;;;7.01;100.00
54389;BME280;40975;50.390;8.640;2023-04-01T04:57:57;97252.50;;;6.98;100.00
54389;BME280;40975;50.390;8.640;2023-04-01T05:00:23;97250.00;;;6.97;100.00
54389;BME280;40975;50.390;8.640;2023-04-01T05:02:54;97242.09;;;6.97;100.00
54389;BME280;40975;50.390;8.640;2023-04-01T05:05:19;97248.19;;;6.97;100.00
54389;BME280;40975;50.390;8.640;2023-04-01T05:07:45;97253.47;;;6.97;100.00
54389;BME280;40975;50.390;8.640;2023-04-01T05:10:10;97256.09;;;6.97;100.00
54389;BME280;40975;50.390;8.640;2023-04-01T05:12:36;97255.75;;;7.00;100.00
54389;BME280;40975;50.390;8.640;2023-04-01T05:15:06;97251.81;;;6.96;100.00
54389;BME280;40975;50.390;8.640;2023-04-01T05:17:31;97247.53;;;6.95;100.00
54389;BME280;40975;50.390;8.640;2023-04-01T05:19:57;97246.06;;;6.93;100.00
54389;BME280;40975;50.390;8.640;2023-04-01T05:22:23;97240.78;;;6.93;100.00
54389;BME280;40975;50.390;8.640;2023-04-01T05:24:49;97242.41;;;6.94;100.00
54389;BME280;40975;50.390;8.640;2023-04-01T05:27:14;97249.69;;;6.92;100.00
54389;BME280;40975;50.390;8.640;2023-04-01T05:29:41;97242.59;;;6.92;100.00
54389;BME280;40975;50.390;8.640;2023-04-01T05:32:12;97243.44;;;6.93;100.00
54389;BME280;40975;50.390;8.640;2023-04-01T05:34:37;97247.06;;;6.92;100.00
54389;BME280;40975;50.390;8.640;2023-04-01T05:37:03;97246.22;;;6.91;100.00
54389;BME280;40975;50.390;8.640;2023-04-01T05:39:28;97248.34;;;6.96;100.00
54389;BME280;40975;50.390;8.640;2023-04-01T05:41:54;97246.56;;;6.96;100.00
54389;BME280;40975;50.390;8.640;2023-04-01T05:44:19;97244.06;;;6.95;100.00
54389;BME280;40975;50.390;8.640;2023-04-01T05:47:04;97241.44;;;6.95;100.00
54389;BME280;40975;50.390;8.640;2023-04-01T05:49:30;97243.91;;;6.96;100.00
54389;BME280;40975;50.390;8.640;2023-04-01T05:51:56;97242.75;;;6.99;100.00
54389;BME280;40975;50.390;8.640;2023-04-01T05:54:22;97246.84;;;7.02;100.00
54389;BME280;40975;50.390;8.640;2023-04-01T05:56:48;97252.97;;;7.02;100.00
54389;BME280;40975;50.390;8.640;2023-04-01T05:59:13;97239.41;;;7.05;100.00
54389;BME280;40975;50.390;8.640;2023-04-01T06:01:40;97250.94;;;7.04;100.00
54389;BME280;40975;50.390;8.640;2023-04-01T06:04:05;97242.38;;;7.10;100.00
54389;BME280;40975;50.390;8.640;2023-04-01T06:06:32;97245.03;;;7.10;100.00
54389;BME280;40975;50.390;8.640;2023-04-01T06:14:38;97243.34;;;7.18;100.00
54389;BME280;40975;50.390;8.640;2023-04-01T06:25:50;97246.59;;;7.28;100.00
54389;BME280;40975;50.390;8.640;2023-04-01T06:28:49;97240.00;;;7.32;100.00
54389;BME280;40975;50.390;8.640;2023-04-01T06:31:57;97246.22;;;7.39;100.00
54389;BME280;40975;50.390;8.640;2023-04-01T06:34:43;97248.53;;;7.42;100.00
54389;BME280;40975;50.390;8.640;2023-04-01T06:43:34;97250.41;;;7.57;100.00
54389;BME280;40975;50.390;8.640;2023-04-01T06:47:04;97263.47;;;7.58;100.00
54389;BME280;40975;50.390;8.640;2023-04-01T06:56:04;97253.59;;;7.75;100.00
54389;BME280;40975;50.390;8.640;2023-04-01T06:58:51;97251.94;;;7.83;100.00
54389;BME280;40975;50.390;8.640;2023-04-01T07:01:25;97259.78;;;7.91;100.00
54389;BME280;40975;50.390;8.640;2023-04-01T07:04:14;97254.03;;;7.87;100.00
54389;BME280;40975;50.390;8.640;2023-04-01T07:06:55;97256.97;;;7.92;100.00
54389;BME280;40975;50.390;8.640;2023-04-01T07:09:26;97257.16;;;7.91;100.00
54389;BME280;40975;50.390;8.640;2023-04-01T07:15:29;97255.25;;;8.00;100.00
54389;BME280;40975;50.390;8.640;2023-04-01T07:18:00;97254.97;;;7.94;100.00
54389;BME280;40975;50.390;8.640;2023-04-01T07:20:32;97249.94;;;8.08;100.00
54389;BME280;40975;50.390;8.640;2023-04-01T07:23:11;97250.34;;;8.20;100.00
54389;BME280;40975;50.390;8.640;2023-04-01T07:25:59;97255.38;;;8.30;100.00
54389;BME280;40975;50.390;8.640;2023-04-01T07:28:31;97257.44;;;8.19;100.00
54389;BME280;40975;50.390;8.640;2023-04-01T07:34:28;97259.22;;;8.42;100.00
54389;BME280;40975;50.390;8.640;2023-04-01T07:43:01;97269.09;;;9.61;100.00
54389;BME280;40975;50.390;8.640;2023-04-01T07:45:36;97268.44;;;9.96;100.00
54389;BME280;40975;50.390;8.640;2023-04-01T07:48:23;97274.19;;;10.00;100.00
54389;BME280;40975;50.390;8.640;2023-04-01T07:51:02;97276.53;;;10.53;100.00
54389;BME280;40975;50.390;8.640;2023-04-01T07:53:37;97281.22;;;10.79;100.00
54389;BME280;40975;50.390;8.640;2023-04-01T07:56:22;97277.28;;;11.32;100.00
54389;BME280;40975;50.390;8.640;2023-04-01T07:59:16;97274.53;;;11.18;100.00
54389;BME280;40975;50.390;8.640;2023-04-01T08:04:57;97289.50;;;10.69;100.00
54389;BME280;40975;50.390;8.640;2023-04-01T08:07:30;97291.38;;;10.47;100.00
54389;BME280;40975;50.390;8.640;2023-04-01T08:17:00;97292.50;;;10.38;100.00
54389;BME280;40975;50.390;8.640;2023-04-01T08:22:27;97297.75;;;9.94;100.00
54389;BME280;40975;50.390;8.640;2023-04-01T08:24:59;97300.91;;;9.83;100.00
54389;BME280;40975;50.390;8.640;2023-04-01T08:27:37;97309.41;;;9.63;100.00
54389;BME280;40975;50.390;8.640;2023-04-01T08:32:48;97301.00;;;9.75;100.00
54389;BME280;40975;50.390;8.640;2023-04-01T08:35:38;97300.22;;;9.59;100.00
54389;BME280;40975;50.390;8.640;2023-04-01T08:38:29;97306.53;;;9.58;100.00
54389;BME280;40975;50.390;8.640;2023-04-01T08:50:05;97312.47;;;9.45;100.00
54389;BME280;40975;50.390;8.640;2023-04-01T08:56:33;97307.06;;;9.54;100.00
54389;BME280;40975;50.390;8.640;2023-04-01T09:04:41;97323.91;;;9.83;100.00
54389;BME280;40975;50.390;8.640;2023-04-01T09:07:20;97320.59;;;9.95;100.00
54389;BME280;40975;50.390;8.640;2023-04-01T09:12:43;97318.81;;;9.81;100.00
54389;BME280;40975;50.390;8.640;2023-04-01T09:20:58;97318.78;;;9.96;100.00
54389;BME280;40975;50.390;8.640;2023-04-01T09:26:33;97331.00;;;10.12;100.00
54389;BME280;40975;50.390;8.640;2023-04-01T09:29:19;97337.53;;;10.16;100.00
54389;BME280;40975;50.390;8.640;2023-04-01T09:34:52;97343.63;;;10.32;100.00
54389;BME280;40975;50.390;8.640;2023-04-01T09:40:31;97335.59;;;10.40;100.00
54389;BME280;40975;50.390;8.640;2023-04-01T09:59:47;97355.88;;;10.98;100.00
54389;BME280;40975;50.390;8.640;2023-04-01T10:12:00;97359.38;;;10.77;100.00
54389;BME280;40975;50.390;8.640;2023-04-01T10:21:14;97354.03;;;10.70;100.00
54389;BME280;40975;50.390;8.640;2023-04-01T10:24:49;97359.69;;;10.67;100.00
54389;BME280;40975;50.390;8.640;2023-04-01T10:30:17;97363.91;;;11.04;100.00
54389;BME280;40975;50.390;8.640;2023-04-01T10:32:59;97366.06;;;10.94;100.00
54389;BME280;40975;50.390;8.640;2023-04-01T10:35:47;97362.63;;;11.00;100.00
54389;BME280;40975;50.390;8.640;2023-04-01T10:38:42;97361.97;;;10.92;100.00
54389;BME280;40975;50.390;8.640;2023-04-01T10:48:13;97372.34;;;10.43;100.00
54389;BME280;40975;50.390;8.640;2023-04-01T10:51:00;97362.56;;;10.65;100.00
54389;BME280;40975;50.390;8.640;2023-04-01T10:53:38;97373.34;;;10.64;100.00
54389;BME280;40975;50.390;8.640;2023-04-01T10:56:45;97367.28;;;10.70;100.00
54389;BME280;40975;50.390;8.640;2023-04-01T11:06:31;97374.97;;;10.65;100.00
54389;BME280;40975;50.390;8.640;2023-04-01T11:17:42;97373.81;;;10.31;100.00
54389;BME280;40975;50.390;8.640;2023-04-01T11:37:58;97382.38;;;11.19;100.00
54389;BME280;40975;50.390;8.640;2023-04-01T11:41:02;97379.56;;;11.56;100.00
54389;BME280;40975;50.390;8.640;2023-04-01T11:43:57;97396.72;;;11.60;100.00
54389;BME280;40975;50.390;8.640;2023-04-01T11:55:40;97395.63;;;11.83;100.00
54389;BME280;40975;50.390;8.640;2023-04-01T12:03:39;97412.03;;;11.58;100.00
54389;BME280;40975;50.390;8.640;2023-04-01T12:06:23;97413.19;;;11.42;100.00
54389;BME280;40975;50.390;8.640;2023-04-01T12:09:01;97423.84;;;11.49;100.00
54389;BME280;40975;50.390;8.640;2023-04-01T12:11:45;97411.50;;;11.34;100.00
54389;BME280;40975;50.390;8.640;2023-04-01T12:14:39;97421.78;;;11.16;100.00
54389;BME280;40975;50.390;8.640;2023-04-01T12:17:20;97419.72;;;11.18;100.00
54389;BME280;40975;50.390;8.640;2023-04-01T12:19:52;97417.78;;;11.05;100.00
54389;BME280;40975;50.390;8.640;2023-04-01T12:25:02;97425.94;;;10.60;100.00
54389;BME280;40975;50.390;8.640;2023-04-01T12:28:01;97430.66;;;10.58;100.00
54389;BME280;40975;50.390;8.640;2023-04-01T12:30:42;97428.78;;;10.58;100.00
54389;BME280;40975;50.390;8.640;2023-04-01T12:36:19;97426.78;;;10.61;100.00
54389;BME280;40975;50.390;8.640;2023-04-01T12:44:42;97436.22;;;11.13;100.00
54389;BME280;40975;50.390;8.640;2023-04-01T12:50:23;97433.97;;;11.67;100.00
54389;BME280;40975;50.390;8.640;2023-04-01T12:55:38;97434.44;;;12.06;100.00
54389;BME280;40975;50.390;8.640;2023-04-01T13:01:03;97447.69;;;12.48;100.00
54389;BME280;40975;50.390;8.640;2023-04-01T13:09:14;97449.69;;;12.32;100.00
54389;BME280;40975;50.390;8.640;2023-04-01T13:15:03;97463.72;;;12.19;100.00
54389;BME280;40975;50.390;8.640;2023-04-01T13:20:49;97464.44;;;12.00;100.00
54389;BME280;40975;50.390;8.640;2023-04-01T13:26:53;97461.72;;;11.58;100.00
54389;BME280;40975;50.390;8.640;2023-04-01T13:29:32;97471.81;;;11.41;100.00
54389;BME280;40975;50.390;8.640;2023-04-01T13:42:53;97473.47;;;11.20;100.00
54389;BME280;40975;50.390;8.640;2023-04-01T13:45:29;97465.41;;;11.35;100.00
54389;BME280;40975;50.390;8.640;2023-04-01T13:50:56;97471.81;;;11.41;100.00
54389;BME280;40975;50.390;8.640;2023-04-01T13:53:46;97476.94;;;11.42;100.00
54389;BME280;40975;50.390;8.640;2023-04-01T14:01:48;97479.22;;;11.74;100.00
54389;BME280;40975;50.390;8.640;2023-04-01T14:10:22;97482.75;;;11.88;100.00
54389;BME280;40975;50.390;8.640;2023-04-01T14:12:59;97480.50;;;11.85;100.00
54389;BME280;40975;50.390;8.640;2023-04-01T14:15:37;97484.38;;;11.82;100.00
54389;BME280;40975;50.390;8.640;2023-04-01T14:18:21;97486.88;;;11.90;100.00
54389;BME280;40975;50.390;8.640;2023-04-01T14:21:13;97483.59;;;12.23;100.00
54389;BME280;40975;50.390;8.640;2023-04-01T14:24:31;97486.63;;;12.62;100.00
54389;BME280;40975;50.390;8.640;2023-04-01T14:27:18;97487.97;;;13.06;100.00
54389;BME280;40975;50.390;8.640;2023-04-01T14:30:08;97486.16;;;13.67;100.00
54389;BME280;40975;50.390;8.640;2023-04-01T14:32:54;97478.13;;;14.01;100.00
54389;BME280;40975;50.390;8.640;2023-04-01T14:35:55;97480.56;;;14.03;100.00
54389;BME280;40975;50.390;8.640;2023-04-01T14:38:51;97485.94;;;13.69;100.00
54389;BME280;40975;50.390;8.640;2023-04-01T14:44:27;97492.69;;;13.38;100.00
54389;BME280;40975;50.390;8.640;2023-04-01T14:47:26;97492.88;;;13.23;100.00
54389;BME280;40975;50.390;8.640;2023-04-01T14:50:05;97490.41;;;13.08;100.00
54389;BME280;40975;50.390;8.640;2023-04-01T14:52:33;97493.09;;;13.01;100.00
54389;BME280;40975;50.390;8.640;2023-04-01T14:55:01;97501.50;;;13.12;100.00
54389;BME280;40975;50.390;8.640;2023-04-01T14:57:36;97501.88;;;13.02;100.00
54389;BME280;40975;50.390;8.640;2023-04-01T15:00:13;97507.16;;;12.88;100.00
54389;BME280;40975;50.390;8.640;2023-04-01T15:03:08;97511.59;;;12.68;100.00
54389;BME280;40975;50.390;8.640;2023-04-01T15:08:57;97519.66;;;12.33;100.00
54389;BME280;40975;50.390;8.640;2023-04-01T15:11:37;97528.63;;;12.25;100.00
54389;BME280;40975;50.390;8.640;2023-04-01T15:17:23;97525.50;;;12.15;100.00
54389;BME280;40975;50.390;8.640;2023-04-01T15:20:10;97527.75;;;12.18;100.00
54389;BME280;40975;50.390;8.640;2023-04-01T15:25:45;97546.00;;;11.20;100.00
54389;BME280;40975;50.390;8.640;2023-04-01T15:28:30;97557.69;;;11.04;100.00
54389;BME280;40975;50.390;8.640;2023-04-01T15:37:00;97561.75;;;10.85;100.00
54389;BME280;40975;50.390;8.640;2023-04-01T15:45:05;97567.72;;;10.27;100.00
54389;BME280;40975;50.390;8.640;2023-04-01T15:47:37;97582.88;;;10.04;100.00
54389;BME280;40975;50.390;8.640;2023-04-01T15:55:48;97589.72;;;9.60;100.00
54389;BME280;40975;50.390;8.640;2023-04-01T15:58:32;97583.06;;;9.64;100.00
54389;BME280;40975;50.390;8.640;2023-04-01T16:01:38;97590.03;;;9.65;100.00
54389;BME280;40975;50.390;8.640;2023-04-01T16:04:32;97588.91;;;9.59;100.00
54389;BME280;40975;50.390;8.640;2023-04-01T16:07:30;97592.75;;;9.57;100.00
54389;BME280;40975;50.390;8.640;2023-04-01T16:10:18;97597.50;;;9.61;100.00
54389;BME280;40975;50.390;8.640;2023-04-01T16:12:56;97587.91;;;9.60;100.00
54389;BME280;40975;50.390;8.640;2023-04-01T16:15:29;97597.50;;;9.61;100.00
54389;BME280;40975;50.390;8.640;2023-04-01T16:20:49;97607.25;;;9.61;100.00
54389;BME280;40975;50.390;8.640;2023-04-01T16:23:25;97593.97;;;9.46;100.00
54389;BME280;40975;50.390;8.640;2023-04-01T16:26:19;97596.50;;;9.62;100.00
54389;BME280;40975;50.390;8.640;2023-04-01T16:28:57;97610.22;;;9.66;100.00
54389;BME280;40975;50.390;8.640;2023-04-01T16:31:34;97597.19;;;9.79;100.00
54389;BME280;40975;50.390;8.640;2023-04-01T16:34:08;97598.94;;;9.87;100.00
54389;BME280;40975;50.390;8.640;2023-04-01T16:36:37;97597.03;;;9.96;100.00
54389;BME280;40975;50.390;8.640;2023-04-01T16:44:46;97609.09;;;9.99;100.00
54389;BME280;40975;50.390;8.640;2023-04-01T16:58:37;97647.78;;;10.08;100.00
54389;BME280;40975;50.390;8.640;2023-04-01T17:01:14;97650.63;;;10.06;100.00
54389;BME280;40975;50.390;8.640;2023-04-01T17:03:46;97653.38;;;10.13;100.00
54389;BME280;40975;50.390;8.640;2023-04-01T17:06:30;97666.56;;;10.21;100.00
54389;BME280;40975;50.390;8.640;2023-04-01T17:20:31;97675.47;;;10.05;100.00
54389;BME280;40975;50.390;8.640;2023-04-01T17:23:15;97671.38;;;10.03;100.00
54389;BME280;40975;50.390;8.640;2023-04-01T17:31:07;97677.97;;;9.84;100.00
54389;BME280;40975;50.390;8.640;2023-04-01T17:33:55;97683.03;;;9.70;100.00
54389;BME280;40975;50.390;8.640;2023-04-01T17:36:39;97690.56;;;9.58;100.00
54389;BME280;40975;50.390;8.640;2023-04-01T17:42:15;97686.66;;;9.46;100.00
54389;BME280;40975;50.390;8.640;2023-04-01T17:44:53;97693.47;;;9.40;100.00
54389;BME280;40975;50.390;8.640;2023-04-01T17:47:40;97704.63;;;9.27;100.00
54389;BME280;40975;50.390;8.640;2023-04-01T17:50:20;97706.97;;;9.22;100.00
54389;BME280;40975;50.390;8.640;2023-04-01T17:55:32;97717.00;;;8.95;100.00
54389;BME280;40975;50.390;8.640;2023-04-01T18:09:45;97741.41;;;8.58;100.00
54389;BME280;40975;50.390;8.640;2023-04-01T18:12:31;97737.44;;;8.53;100.00
54389;BME280;40975;50.390;8.640;2023-04-01T18:24:01;97771.13;;;8.60;100.00
54389;BME280;40975;50.390;8.640;2023-04-01T18:26:32;97781.19;;;8.64;100.00
54389;BME280;40975;50.390;8.640;2023-04-01T18:31:46;97788.50;;;8.70;100.00
54389;BME280;40975;50.390;8.640;2023-04-01T18:36:51;97792.44;;;8.75;100.00
54389;BME280;40975;50.390;8.640;2023-04-01T18:39:30;97798.72;;;8.74;100.00
54389;BME280;40975;50.390;8.640;2023-04-01T18:44:45;97795.91;;;8.75;100.00
54389;BME280;40975;50.390;8.640;2023-04-01T18:47:44;97804.66;;;8.76;100.00
54389;BME280;40975;50.390;8.640;2023-04-01T18:50:22;97806.31;;;8.77;100.00
54389;BME280;40975;50.390;8.640;2023-04-01T18:52:56;97820.22;;;8.70;100.00
54389;BME280;40975;50.390;8.640;2023-04-01T18:55:35;97817.22;;;8.74;100.00
54389;BME280;40975;50.390;8.640;2023-04-01T19:00:46;97828.31;;;8.69;100.00
54389;BME280;40975;50.390;8.640;2023-04-01T19:03:21;97836.59;;;8.66;100.00
54389;BME280;40975;50.390;8.640;2023-04-01T19:05:51;97836.91;;;8.63;100.00
54389;BME280;40975;50.390;8.640;2023-04-01T19:08:19;97852.63;;;8.64;100.00
54389;BME280;40975;50.390;8.640;2023-04-01T19:20:30;97865.84;;;8.56;100.00
54389;BME280;40975;50.390;8.640;2023-04-01T19:30:59;97869.31;;;8.48;100.00
54389;BME280;40975;50.390;8.640;2023-04-01T19:33:44;97871.28;;;8.46;100.00
54389;BME280;40975;50.390;8.640;2023-04-01T19:36:32;97879.53;;;8.43;100.00
54389;BME280;40975;50.390;8.640;2023-04-01T19:45:07;97884.31;;;8.39;100.00
54389;BME280;40975;50.390;8.640;2023-04-01T19:47:54;97879.16;;;8.30;100.00
54389;BME280;40975;50.390;8.640;2023-04-01T19:50:27;97886.28;;;8.29;100.00
54389;BME280;40975;50.390;8.640;2023-04-01T19:53:15;97888.22;;;8.19;100.00
54389;BME280;40975;50.390;8.640;2023-04-01T19:55:59;97890.69;;;8.12;100.00
54389;BME280;40975;50.390;8.640;2023-04-01T20:01:03;97900.06;;;7.98;100.00
54389;BME280;40975;50.390;8.640;2023-04-01T20:03:40;97912.94;;;7.93;100.00
54389;BME280;40975;50.390;8.640;2023-04-01T20:06:23;97909.75;;;7.89;100.00